sensor_id;sensor_type;location;lat;lon;timestamp;P1;durP1;ratioP1;P2;durP2;ratioP2
11877;SDS011;5998;42.676;23.268;2023-03-13T00:01:25;5.37;;;4.37;;
11877;SDS011;5998;42.676;23.268;2023-03-13T00:03:53;7.27;;;4.30;;
11877;SDS011;5998;42.676;23.268;2023-03-13T00:06:19;6.20;;;4.30;;
11877;SDS011;5998;42.676;23.268;2023-03-13T00:08:47;5.90;;;3.90;;
11877;SDS011;5998;42.676;23.268;2023-03-13T00:11:15;5.97;;;4.57;;
11877;SDS011;5998;42.676;23.268;2023-03-13T00:13:42;5.83;;;4.00;;
11877;SDS011;5998;42.676;23.268;2023-03-13T00:16:10;4.83;;;3.87;;
11877;SDS011;5998;42.676;23.268;2023-03-13T00:18:38;4.90;;;3.60;;
11877;SDS011;5998;42.676;23.268;2023-03-13T00:21:05;4.43;;;3.83;;
11877;SDS011;5998;42.676;23.268;2023-03-13T00:23:34;4.27;;;3.70;;
11877;SDS011;5998;42.676;23.268;2023-03-13T00:26:03;4.80;;;3.63;;
11877;SDS011;5998;42.676;23.268;2023-03-13T00:28:33;4.23;;;3.80;;
11877;SDS011;5998;42.676;23.268;2023-03-13T00:31:02;5.33;;;4.10;;
11877;SDS011;5998;42.676;23.268;2023-03-13T00:33:30;4.00;;;3.57;;
11877;SDS011;5998;42.676;23.268;2023-03-13T00:35:57;4.07;;;3.60;;
11877;SDS011;5998;42.676;23.268;2023-03-13T00:38:24;5.33;;;3.87;;
11877;SDS011;5998;42.676;23.268;2023-03-13T00:40:57;7.10;;;4.00;;
11877;SDS011;5998;42.676;23.268;2023-03-13T00:43:25;5.67;;;4.30;;
11877;SDS011;5998;42.676;23.268;2023-03-13T00:45:53;4.73;;;4.03;;
11877;SDS011;5998;42.676;23.268;2023-03-13T00:48:19;6.30;;;4.83;;
11877;SDS011;5998;42.676;23.268;2023-03-13T00:50:46;6.90;;;5.37;;
11877;SDS011;5998;42.676;23.268;2023-03-13T00:53:13;7.10;;;5.40;;
11877;SDS011;5998;42.676;23.268;2023-03-13T00:55:49;7.07;;;5.03;;
11877;SDS011;5998;42.676;23.268;2023-03-13T00:58:17;7.73;;;5.30;;
11877;SDS011;5998;42.676;23.268;2023-03-13T01:00:44;6.73;;;4.50;;
11877;SDS011;5998;42.676;23.268;2023-03-13T01:03:12;6.13;;;4.70;;
11877;SDS011;5998;42.676;23.268;2023-03-13T01:05:39;8.20;;;5.10;;
11877;SDS011;5998;42.676;23.268;2023-03-13T01:08:06;5.40;;;4.33;;
11877;SDS011;5998;42.676;23.268;2023-03-13T01:10:32;6.23;;;4.80;;
11877;SDS011;5998;42.676;23.268;2023-03-13T01:12:59;6.30;;;4.90;;
11877;SDS011;5998;42.676;23.268;2023-03-13T01:15:28;7.23;;;4.73;;
11877;SDS011;5998;42.676;23.268;2023-03-13T01:17:55;6.83;;;4.57;;
11877;SDS011;5998;42.676;23.268;2023-03-13T01:20:23;5.63;;;4.80;;
11877;SDS011;5998;42.676;23.268;2023-03-13T01:22:50;5.90;;;4.50;;
11877;SDS011;5998;42.676;23.268;2023-03-13T01:25:17;7.03;;;4.63;;
11877;SDS011;5998;42.676;23.268;2023-03-13T01:27:43;8.43;;;4.50;;
11877;SDS011;5998;42.676;23.268;2023-03-13T01:30:10;5.43;;;4.33;;
11877;SDS011;5998;42.676;23.268;2023-03-13T01:32:37;5.00;;;4.10;;
11877;SDS011;5998;42.676;23.268;2023-03-13T01:35:04;14.70;;;4.70;;
11877;SDS011;5998;42.676;23.268;2023-03-13T01:37:33;5.53;;;4.47;;
11877;SDS011;5998;42.676;23.268;2023-03-13T01:40:00;6.13;;;4.07;;
11877;SDS011;5998;42.676;23.268;2023-03-13T01:42:27;4.93;;;4.03;;
11877;SDS011;5998;42.676;23.268;2023-03-13T01:44:54;4.73;;;3.73;;
11877;SDS011;5998;42.676;23.268;2023-03-13T01:47:22;4.80;;;3.80;;
11877;SDS011;5998;42.676;23.268;2023-03-13T01:49:49;5.30;;;4.20;;
11877;SDS011;5998;42.676;23.268;2023-03-13T01:52:18;5.40;;;4.20;;
11877;SDS011;5998;42.676;23.268;2023-03-13T01:54:50;5.33;;;4.20;;
11877;SDS011;5998;42.676;23.268;2023-03-13T01:57:21;5.97;;;4.87;;
11877;SDS011;5998;42.676;23.268;2023-03-13T01:59:51;5.40;;;4.27;;
11877;SDS011;5998;42.676;23.268;2023-03-13T02:02:21;7.07;;;4.73;;
11877;SDS011;5998;42.676;23.268;2023-03-13T02:04:49;7.13;;;4.73;;
11877;SDS011;5998;42.676;23.268;2023-03-13T02:07:20;6.97;;;4.77;;
11877;SDS011;5998;42.676;23.268;2023-03-13T02:09:54;5.10;;;4.57;;
11877;SDS011;5998;42.676;23.268;2023-03-13T02:12:23;4.27;;;3.80;;
11877;SDS011;5998;42.676;23.268;2023-03-13T02:14:56;5.07;;;4.03;;
11877;SDS011;5998;42.676;23.268;2023-03-13T02:17:25;5.07;;;4.40;;
11877;SDS011;5998;42.676;23.268;2023-03-13T02:19:52;6.33;;;4.13;;
11877;SDS011;5998;42.676;23.268;2023-03-13T02:22:21;6.30;;;4.23;;
11877;SDS011;5998;42.676;23.268;2023-03-13T02:24:53;4.67;;;4.00;;
11877;SDS011;5998;42.676;23.268;2023-03-13T02:27:26;5.93;;;4.70;;
11877;SDS011;5998;42.676;23.268;2023-03-13T02:29:53;7.10;;;4.17;;
11877;SDS011;5998;42.676;23.268;2023-03-13T02:32:20;5.70;;;3.90;;
11877;SDS011;5998;42.676;23.268;2023-03-13T02:34:48;8.37;;;4.07;;
11877;SDS011;5998;42.676;23.268;2023-03-13T02:37:19;5.63;;;3.83;;
11877;SDS011;5998;42.676;23.268;2023-03-13T02:39:46;5.60;;;4.70;;
11877;SDS011;5998;42.676;23.268;2023-03-13T02:42:16;4.87;;;4.03;;
11877;SDS011;5998;42.676;23.268;2023-03-13T02:44:46;5.63;;;4.13;;
11877;SDS011;5998;42.676;23.268;2023-03-13T02:47:16;5.70;;;4.17;;
11877;SDS011;5998;42.676;23.268;2023-03-13T02:49:43;7.70;;;4.67;;
11877;SDS011;5998;42.676;23.268;2023-03-13T02:52:10;6.87;;;4.80;;
11877;SDS011;5998;42.676;23.268;2023-03-13T02:54:40;6.70;;;4.80;;
11877;SDS011;5998;42.676;23.268;2023-03-13T02:57:10;10.17;;;4.70;;
11877;SDS011;5998;42.676;23.268;2023-03-13T02:59:36;8.57;;;4.97;;
11877;SDS011;5998;42.676;23.268;2023-03-13T03:02:04;7.77;;;5.30;;
11877;SDS011;5998;42.676;23.268;2023-03-13T03:04:31;8.53;;;5.10;;
11877;SDS011;5998;42.676;23.268;2023-03-13T03:06:58;7.47;;;4.80;;
11877;SDS011;5998;42.676;23.268;2023-03-13T03:09:25;8.43;;;5.20;;
11877;SDS011;5998;42.676;23.268;2023-03-13T03:11:51;12.57;;;5.30;;
11877;SDS011;5998;42.676;23.268;2023-03-13T03:14:18;8.10;;;5.03;;
11877;SDS011;5998;42.676;23.268;2023-03-13T03:16:45;10.10;;;5.87;;
11877;SDS011;5998;42.676;23.268;2023-03-13T03:19:13;8.07;;;4.77;;
11877;SDS011;5998;42.676;23.268;2023-03-13T03:21:40;5.70;;;4.80;;
11877;SDS011;5998;42.676;23.268;2023-03-13T03:24:07;6.33;;;4.67;;
11877;SDS011;5998;42.676;23.268;2023-03-13T03:26:34;6.67;;;4.73;;
11877;SDS011;5998;42.676;23.268;2023-03-13T03:29:00;5.87;;;4.53;;
11877;SDS011;5998;42.676;23.268;2023-03-13T03:31:28;6.37;;;5.13;;
11877;SDS011;5998;42.676;23.268;2023-03-13T03:33:55;6.33;;;5.13;;
11877;SDS011;5998;42.676;23.268;2023-03-13T03:36:23;9.50;;;5.63;;
11877;SDS011;5998;42.676;23.268;2023-03-13T03:38:50;9.90;;;5.40;;
11877;SDS011;5998;42.676;23.268;2023-03-13T03:41:17;8.00;;;4.80;;
11877;SDS011;5998;42.676;23.268;2023-03-13T03:43:44;8.90;;;5.40;;
11877;SDS011;5998;42.676;23.268;2023-03-13T03:46:12;6.67;;;5.07;;
11877;SDS011;5998;42.676;23.268;2023-03-13T03:48:39;8.23;;;5.63;;
11877;SDS011;5998;42.676;23.268;2023-03-13T03:51:06;12.00;;;6.47;;
11877;SDS011;5998;42.676;23.268;2023-03-13T03:53:34;13.23;;;6.97;;
11877;SDS011;5998;42.676;23.268;2023-03-13T03:56:01;12.97;;;6.37;;
11877;SDS011;5998;42.676;23.268;2023-03-13T03:58:28;10.57;;;7.60;;
11877;SDS011;5998;42.676;23.268;2023-03-13T04:00:55;10.07;;;7.77;;
11877;SDS011;5998;42.676;23.268;2023-03-13T04:03:23;11.67;;;7.67;;
11877;SDS011;5998;42.676;23.268;2023-03-13T04:05:50;12.03;;;7.47;;
11877;SDS011;5998;42.676;23.268;2023-03-13T04:08:17;14.50;;;7.53;;
11877;SDS011;5998;42.676;23.268;2023-03-13T04:10:45;13.53;;;6.37;;
11877;SDS011;5998;42.676;23.268;2023-03-13T04:13:12;11.70;;;7.77;;
11877;SDS011;5998;42.676;23.268;2023-03-13T04:15:39;12.40;;;8.30;;
11877;SDS011;5998;42.676;23.268;2023-03-13T04:18:06;17.53;;;8.57;;
11877;SDS011;5998;42.676;23.268;2023-03-13T04:20:33;14.27;;;9.00;;
11877;SDS011;5998;42.676;23.268;2023-03-13T04:23:00;23.87;;;8.67;;
11877;SDS011;5998;42.676;23.268;2023-03-13T04:25:26;20.17;;;8.20;;
11877;SDS011;5998;42.676;23.268;2023-03-13T04:27:55;12.10;;;8.00;;
11877;SDS011;5998;42.676;23.268;2023-03-13T04:30:21;10.57;;;7.37;;
11877;SDS011;5998;42.676;23.268;2023-03-13T04:32:48;12.07;;;7.87;;
11877;SDS011;5998;42.676;23.268;2023-03-13T04:35:16;12.27;;;7.90;;
11877;SDS011;5998;42.676;23.268;2023-03-13T04:37:43;13.07;;;8.57;;
11877;SDS011;5998;42.676;23.268;2023-03-13T04:40:10;11.50;;;7.53;;
11877;SDS011;5998;42.676;23.268;2023-03-13T04:42:38;13.73;;;7.90;;
11877;SDS011;5998;42.676;23.268;2023-03-13T04:45:07;13.40;;;8.13;;
11877;SDS011;5998;42.676;23.268;2023-03-13T04:47:35;33.00;;;17.90;;
11877;SDS011;5998;42.676;23.268;2023-03-13T04:50:02;18.03;;;10.60;;
11877;SDS011;5998;42.676;23.268;2023-03-13T04:52:29;15.20;;;10.37;;
11877;SDS011;5998;42.676;23.268;2023-03-13T04:54:56;15.87;;;9.60;;
11877;SDS011;5998;42.676;23.268;2023-03-13T04:57:23;15.00;;;10.07;;
11877;SDS011;5998;42.676;23.268;2023-03-13T04:59:49;15.60;;;10.43;;
11877;SDS011;5998;42.676;23.268;2023-03-13T05:02:18;15.77;;;10.83;;
11877;SDS011;5998;42.676;23.268;2023-03-13T05:04:44;11.90;;;7.97;;
11877;SDS011;5998;42.676;23.268;2023-03-13T05:07:11;14.03;;;7.40;;
11877;SDS011;5998;42.676;23.268;2023-03-13T05:09:38;8.43;;;7.43;;
11877;SDS011;5998;42.676;23.268;2023-03-13T05:12:04;11.77;;;7.63;;
11877;SDS011;5998;42.676;23.268;2023-03-13T05:14:32;12.20;;;8.10;;
11877;SDS011;5998;42.676;23.268;2023-03-13T05:16:58;10.57;;;7.33;;
11877;SDS011;5998;42.676;23.268;2023-03-13T05:19:27;15.13;;;8.30;;
11877;SDS011;5998;42.676;23.268;2023-03-13T05:21:53;19.67;;;9.40;;
11877;SDS011;5998;42.676;23.268;2023-03-13T05:24:20;9.87;;;8.13;;
11877;SDS011;5998;42.676;23.268;2023-03-13T05:26:47;12.33;;;7.80;;
11877;SDS011;5998;42.676;23.268;2023-03-13T05:29:13;14.20;;;9.27;;
11877;SDS011;5998;42.676;23.268;2023-03-13T05:31:40;15.80;;;9.37;;
11877;SDS011;5998;42.676;23.268;2023-03-13T05:34:07;16.37;;;10.10;;
11877;SDS011;5998;42.676;23.268;2023-03-13T05:36:35;12.97;;;9.17;;
11877;SDS011;5998;42.676;23.268;2023-03-13T05:39:01;16.47;;;10.13;;
11877;SDS011;5998;42.676;23.268;2023-03-13T05:41:28;15.83;;;9.93;;
11877;SDS011;5998;42.676;23.268;2023-03-13T05:43:55;17.13;;;9.97;;
11877;SDS011;5998;42.676;23.268;2023-03-13T05:46:22;15.73;;;10.50;;
11877;SDS011;5998;42.676;23.268;2023-03-13T05:48:48;16.50;;;10.80;;
11877;SDS011;5998;42.676;23.268;2023-03-13T05:51:16;17.63;;;10.03;;
11877;SDS011;5998;42.676;23.268;2023-03-13T05:53:45;14.40;;;9.30;;
11877;SDS011;5998;42.676;23.268;2023-03-13T05:56:11;12.33;;;9.10;;
11877;SDS011;5998;42.676;23.268;2023-03-13T05:58:38;14.23;;;9.63;;
11877;SDS011;5998;42.676;23.268;2023-03-13T06:01:05;13.63;;;9.20;;
11877;SDS011;5998;42.676;23.268;2023-03-13T06:03:33;13.63;;;10.50;;
11877;SDS011;5998;42.676;23.268;2023-03-13T06:05:59;11.43;;;8.40;;
11877;SDS011;5998;42.676;23.268;2023-03-13T06:08:26;19.60;;;9.17;;
11877;SDS011;5998;42.676;23.268;2023-03-13T06:10:54;10.83;;;8.40;;
11877;SDS011;5998;42.676;23.268;2023-03-13T06:13:24;13.23;;;8.97;;
11877;SDS011;5998;42.676;23.268;2023-03-13T06:15:51;9.03;;;7.60;;
11877;SDS011;5998;42.676;23.268;2023-03-13T06:18:18;12.90;;;8.33;;
11877;SDS011;5998;42.676;23.268;2023-03-13T06:20:45;10.73;;;8.30;;
11877;SDS011;5998;42.676;23.268;2023-03-13T06:23:12;10.90;;;7.53;;
11877;SDS011;5998;42.676;23.268;2023-03-13T06:25:38;10.53;;;7.80;;
11877;SDS011;5998;42.676;23.268;2023-03-13T06:28:06;12.57;;;8.20;;
11877;SDS011;5998;42.676;23.268;2023-03-13T06:30:33;10.83;;;6.87;;
11877;SDS011;5998;42.676;23.268;2023-03-13T06:33:00;8.77;;;6.90;;
11877;SDS011;5998;42.676;23.268;2023-03-13T06:35:26;10.60;;;7.67;;
11877;SDS011;5998;42.676;23.268;2023-03-13T06:37:53;10.57;;;6.83;;
11877;SDS011;5998;42.676;23.268;2023-03-13T06:40:20;8.57;;;7.43;;
11877;SDS011;5998;42.676;23.268;2023-03-13T06:42:46;8.60;;;7.30;;
11877;SDS011;5998;42.676;23.268;2023-03-13T06:45:14;9.10;;;6.80;;
11877;SDS011;5998;42.676;23.268;2023-03-13T06:47:41;11.97;;;7.13;;
11877;SDS011;5998;42.676;23.268;2023-03-13T06:50:08;11.00;;;6.27;;
11877;SDS011;5998;42.676;23.268;2023-03-13T06:52:36;10.67;;;6.60;;
11877;SDS011;5998;42.676;23.268;2023-03-13T06:55:03;12.90;;;7.70;;
11877;SDS011;5998;42.676;23.268;2023-03-13T06:57:30;13.90;;;8.70;;
11877;SDS011;5998;42.676;23.268;2023-03-13T06:59:57;11.87;;;7.67;;
11877;SDS011;5998;42.676;23.268;2023-03-13T07:02:25;13.30;;;8.73;;
11877;SDS011;5998;42.676;23.268;2023-03-13T07:04:51;11.50;;;9.87;;
11877;SDS011;5998;42.676;23.268;2023-03-13T07:07:18;12.27;;;9.80;;
11877;SDS011;5998;42.676;23.268;2023-03-13T07:09:45;13.63;;;9.63;;
11877;SDS011;5998;42.676;23.268;2023-03-13T07:12:11;15.27;;;10.80;;
11877;SDS011;5998;42.676;23.268;2023-03-13T07:14:38;14.90;;;10.97;;
11877;SDS011;5998;42.676;23.268;2023-03-13T07:17:05;12.90;;;8.80;;
11877;SDS011;5998;42.676;23.268;2023-03-13T07:19:33;12.37;;;9.33;;
11877;SDS011;5998;42.676;23.268;2023-03-13T07:21:59;11.97;;;8.17;;
11877;SDS011;5998;42.676;23.268;2023-03-13T07:24:26;11.83;;;7.97;;
11877;SDS011;5998;42.676;23.268;2023-03-13T07:26:53;8.93;;;5.73;;
11877;SDS011;5998;42.676;23.268;2023-03-13T07:29:19;8.90;;;6.03;;
11877;SDS011;5998;42.676;23.268;2023-03-13T07:31:46;7.60;;;6.10;;
11877;SDS011;5998;42.676;23.268;2023-03-13T07:34:13;8.50;;;5.70;;
11877;SDS011;5998;42.676;23.268;2023-03-13T07:36:41;6.70;;;5.30;;
11877;SDS011;5998;42.676;23.268;2023-03-13T07:39:08;9.57;;;6.53;;
11877;SDS011;5998;42.676;23.268;2023-03-13T07:41:34;10.33;;;5.50;;
11877;SDS011;5998;42.676;23.268;2023-03-13T07:44:01;6.60;;;5.73;;
11877;SDS011;5998;42.676;23.268;2023-03-13T07:46:28;10.27;;;6.83;;
11877;SDS011;5998;42.676;23.268;2023-03-13T07:48:54;11.10;;;6.40;;
11877;SDS011;5998;42.676;23.268;2023-03-13T07:51:22;8.30;;;6.03;;
11877;SDS011;5998;42.676;23.268;2023-03-13T07:53:51;8.10;;;6.13;;
11877;SDS011;5998;42.676;23.268;2023-03-13T07:56:19;11.60;;;7.30;;
11877;SDS011;5998;42.676;23.268;2023-03-13T07:58:47;8.40;;;6.77;;
11877;SDS011;5998;42.676;23.268;2023-03-13T08:01:14;10.23;;;7.00;;
11877;SDS011;5998;42.676;23.268;2023-03-13T08:03:42;11.43;;;7.00;;
11877;SDS011;5998;42.676;23.268;2023-03-13T08:06:11;11.07;;;9.13;;
11877;SDS011;5998;42.676;23.268;2023-03-13T08:08:39;9.60;;;6.83;;
11877;SDS011;5998;42.676;23.268;2023-03-13T08:11:08;7.80;;;7.00;;
11877;SDS011;5998;42.676;23.268;2023-03-13T08:13:36;8.37;;;7.40;;
11877;SDS011;5998;42.676;23.268;2023-03-13T08:16:04;10.33;;;8.30;;
11877;SDS011;5998;42.676;23.268;2023-03-13T08:18:32;9.60;;;8.60;;
11877;SDS011;5998;42.676;23.268;2023-03-13T08:21:00;8.67;;;7.60;;
11877;SDS011;5998;42.676;23.268;2023-03-13T08:23:28;14.30;;;7.93;;
11877;SDS011;5998;42.676;23.268;2023-03-13T08:25:54;12.23;;;9.27;;
11877;SDS011;5998;42.676;23.268;2023-03-13T08:28:22;11.63;;;9.27;;
11877;SDS011;5998;42.676;23.268;2023-03-13T08:30:49;12.10;;;8.67;;
11877;SDS011;5998;42.676;23.268;2023-03-13T08:33:16;10.77;;;8.57;;
11877;SDS011;5998;42.676;23.268;2023-03-13T08:35:42;11.87;;;9.53;;
11877;SDS011;5998;42.676;23.268;2023-03-13T08:38:09;12.13;;;9.23;;
11877;SDS011;5998;42.676;23.268;2023-03-13T08:40:36;10.20;;;8.87;;
11877;SDS011;5998;42.676;23.268;2023-03-13T08:43:02;11.47;;;8.33;;
11877;SDS011;5998;42.676;23.268;2023-03-13T08:45:30;10.33;;;8.30;;
11877;SDS011;5998;42.676;23.268;2023-03-13T08:47:57;11.70;;;8.77;;
11877;SDS011;5998;42.676;23.268;2023-03-13T08:50:24;10.87;;;8.80;;
11877;SDS011;5998;42.676;23.268;2023-03-13T08:52:51;10.97;;;8.63;;
11877;SDS011;5998;42.676;23.268;2023-03-13T08:55:17;10.93;;;8.77;;
11877;SDS011;5998;42.676;23.268;2023-03-13T08:57:44;11.73;;;9.00;;
11877;SDS011;5998;42.676;23.268;2023-03-13T09:00:11;11.70;;;8.27;;
11877;SDS011;5998;42.676;23.268;2023-03-13T09:02:41;17.03;;;9.60;;
11877;SDS011;5998;42.676;23.268;2023-03-13T09:05:07;9.73;;;8.17;;
11877;SDS011;5998;42.676;23.268;2023-03-13T09:07:34;8.77;;;7.80;;
11877;SDS011;5998;42.676;23.268;2023-03-13T09:10:01;8.27;;;7.27;;
11877;SDS011;5998;42.676;23.268;2023-03-13T09:12:28;9.90;;;8.90;;
11877;SDS011;5998;42.676;23.268;2023-03-13T09:14:55;12.00;;;8.90;;
11877;SDS011;5998;42.676;23.268;2023-03-13T09:17:22;11.97;;;8.70;;
11877;SDS011;5998;42.676;23.268;2023-03-13T09:19:51;11.43;;;9.47;;
11877;SDS011;5998;42.676;23.268;2023-03-13T09:22:18;9.80;;;8.80;;
11877;SDS011;5998;42.676;23.268;2023-03-13T09:24:44;11.57;;;9.10;;
11877;SDS011;5998;42.676;23.268;2023-03-13T09:27:11;9.77;;;8.77;;
11877;SDS011;5998;42.676;23.268;2023-03-13T09:29:38;12.97;;;9.30;;
11877;SDS011;5998;42.676;23.268;2023-03-13T09:32:06;11.03;;;8.70;;
11877;SDS011;5998;42.676;23.268;2023-03-13T09:34:33;12.43;;;8.57;;
11877;SDS011;5998;42.676;23.268;2023-03-13T09:37:01;12.77;;;8.93;;
11877;SDS011;5998;42.676;23.268;2023-03-13T09:39:27;9.50;;;8.50;;
11877;SDS011;5998;42.676;23.268;2023-03-13T09:42:00;10.40;;;8.60;;
11877;SDS011;5998;42.676;23.268;2023-03-13T09:44:35;11.87;;;8.73;;
11877;SDS011;5998;42.676;23.268;2023-03-13T09:47:08;13.60;;;8.53;;
11877;SDS011;5998;42.676;23.268;2023-03-13T09:49:40;12.77;;;8.47;;
11877;SDS011;5998;42.676;23.268;2023-03-13T09:52:16;8.40;;;7.60;;
11877;SDS011;5998;42.676;23.268;2023-03-13T09:54:45;11.17;;;8.60;;
11877;SDS011;5998;42.676;23.268;2023-03-13T09:57:15;11.23;;;8.60;;
11877;SDS011;5998;42.676;23.268;2023-03-13T09:59:50;11.10;;;8.47;;
11877;SDS011;5998;42.676;23.268;2023-03-13T10:02:27;9.73;;;8.73;;
11877;SDS011;5998;42.676;23.268;2023-03-13T10:04:58;12.43;;;8.67;;
11877;SDS011;5998;42.676;23.268;2023-03-13T10:07:40;9.17;;;8.13;;
11877;SDS011;5998;42.676;23.268;2023-03-13T10:10:10;9.33;;;8.17;;
11877;SDS011;5998;42.676;23.268;2023-03-13T10:12:42;13.33;;;9.27;;
11877;SDS011;5998;42.676;23.268;2023-03-13T10:15:20;12.30;;;8.90;;
11877;SDS011;5998;42.676;23.268;2023-03-13T10:17:55;10.17;;;8.50;;
11877;SDS011;5998;42.676;23.268;2023-03-13T10:20:25;11.40;;;8.37;;
11877;SDS011;5998;42.676;23.268;2023-03-13T10:22:55;9.50;;;8.50;;
11877;SDS011;5998;42.676;23.268;2023-03-13T10:25:26;10.20;;;9.10;;
11877;SDS011;5998;42.676;23.268;2023-03-13T10:27:56;11.73;;;8.83;;
11877;SDS011;5998;42.676;23.268;2023-03-13T10:30:24;9.97;;;8.90;;
11877;SDS011;5998;42.676;23.268;2023-03-13T10:32:52;12.40;;;9.07;;
11877;SDS011;5998;42.676;23.268;2023-03-13T10:35:23;11.77;;;9.23;;
11877;SDS011;5998;42.676;23.268;2023-03-13T10:38:01;14.07;;;9.60;;
11877;SDS011;5998;42.676;23.268;2023-03-13T10:40:31;12.23;;;8.87;;
11877;SDS011;5998;42.676;23.268;2023-03-13T10:43:02;12.00;;;9.30;;
11877;SDS011;5998;42.676;23.268;2023-03-13T10:45:31;10.93;;;9.83;;
11877;SDS011;5998;42.676;23.268;2023-03-13T10:48:00;12.00;;;9.53;;
11877;SDS011;5998;42.676;23.268;2023-03-13T10:50:31;10.13;;;8.93;;
11877;SDS011;5998;42.676;23.268;2023-03-13T10:53:12;10.03;;;9.00;;
11877;SDS011;5998;42.676;23.268;2023-03-13T10:55:46;11.73;;;9.87;;
11877;SDS011;5998;42.676;23.268;2023-03-13T10:58:16;11.03;;;9.40;;
11877;SDS011;5998;42.676;23.268;2023-03-13T11:00:46;11.57;;;9.53;;
11877;SDS011;5998;42.676;23.268;2023-03-13T11:03:13;11.50;;;9.10;;
11877;SDS011;5998;42.676;23.268;2023-03-13T11:05:43;11.47;;;10.13;;
11877;SDS011;5998;42.676;23.268;2023-03-13T11:08:21;12.40;;;9.57;;
11877;SDS011;5998;42.676;23.268;2023-03-13T11:10:56;13.63;;;10.03;;
11877;SDS011;5998;42.676;23.268;2023-03-13T11:13:27;12.63;;;9.33;;
11877;SDS011;5998;42.676;23.268;2023-03-13T11:15:57;14.13;;;9.23;;
11877;SDS011;5998;42.676;23.268;2023-03-13T11:18:27;12.63;;;9.37;;
11877;SDS011;5998;42.676;23.268;2023-03-13T11:20:58;14.07;;;10.73;;
11877;SDS011;5998;42.676;23.268;2023-03-13T11:23:29;11.40;;;9.77;;
11877;SDS011;5998;42.676;23.268;2023-03-13T11:26:01;13.73;;;10.40;;
11877;SDS011;5998;42.676;23.268;2023-03-13T11:28:39;13.83;;;10.70;;
11877;SDS011;5998;42.676;23.268;2023-03-13T11:31:17;14.63;;;10.63;;
11877;SDS011;5998;42.676;23.268;2023-03-13T11:33:47;13.60;;;10.50;;
11877;SDS011;5998;42.676;23.268;2023-03-13T11:36:21;14.33;;;10.33;;
11877;SDS011;5998;42.676;23.268;2023-03-13T11:38:57;11.00;;;9.53;;
11877;SDS011;5998;42.676;23.268;2023-03-13T11:41:40;15.23;;;11.77;;
11877;SDS011;5998;42.676;23.268;2023-03-13T11:47:14;11.27;;;9.90;;
11877;SDS011;5998;42.676;23.268;2023-03-13T11:50:05;11.83;;;10.37;;
11877;SDS011;5998;42.676;23.268;2023-03-13T11:52:42;14.00;;;11.57;;
11877;SDS011;5998;42.676;23.268;2023-03-13T11:55:26;13.27;;;11.87;;
11877;SDS011;5998;42.676;23.268;2023-03-13T11:58:03;14.57;;;11.53;;
11877;SDS011;5998;42.676;23.268;2023-03-13T12:00:40;11.33;;;9.97;;
11877;SDS011;5998;42.676;23.268;2023-03-13T12:03:13;12.80;;;10.30;;
11877;SDS011;5998;42.676;23.268;2023-03-13T12:05:46;10.43;;;9.33;;
11877;SDS011;5998;42.676;23.268;2023-03-13T12:08:17;13.50;;;10.30;;
11877;SDS011;5998;42.676;23.268;2023-03-13T12:10:53;17.97;;;11.70;;
11877;SDS011;5998;42.676;23.268;2023-03-13T12:13:30;13.40;;;10.53;;
11877;SDS011;5998;42.676;23.268;2023-03-13T12:16:01;12.97;;;10.97;;
11877;SDS011;5998;42.676;23.268;2023-03-13T12:18:35;14.73;;;11.50;;
11877;SDS011;5998;42.676;23.268;2023-03-13T12:21:04;12.30;;;10.50;;
11877;SDS011;5998;42.676;23.268;2023-03-13T12:23:41;14.40;;;10.93;;
11877;SDS011;5998;42.676;23.268;2023-03-13T12:26:16;11.13;;;10.03;;
11877;SDS011;5998;42.676;23.268;2023-03-13T12:28:46;11.47;;;10.27;;
11877;SDS011;5998;42.676;23.268;2023-03-13T12:31:18;13.17;;;11.13;;
11877;SDS011;5998;42.676;23.268;2023-03-13T12:33:52;13.57;;;11.40;;
11877;SDS011;5998;42.676;23.268;2023-03-13T12:36:25;14.77;;;11.50;;
11877;SDS011;5998;42.676;23.268;2023-03-13T12:38:56;14.50;;;11.93;;
11877;SDS011;5998;42.676;23.268;2023-03-13T12:41:36;12.87;;;11.40;;
11877;SDS011;5998;42.676;23.268;2023-03-13T12:44:08;13.43;;;10.90;;
11877;SDS011;5998;42.676;23.268;2023-03-13T12:46:41;13.73;;;10.67;;
11877;SDS011;5998;42.676;23.268;2023-03-13T12:52:24;13.33;;;11.17;;
11877;SDS011;5998;42.676;23.268;2023-03-13T12:55:27;15.73;;;11.77;;
11877;SDS011;5998;42.676;23.268;2023-03-13T12:58:14;15.83;;;12.23;;
11877;SDS011;5998;42.676;23.268;2023-03-13T13:00:56;15.70;;;11.70;;
11877;SDS011;5998;42.676;23.268;2023-03-13T13:03:29;12.50;;;11.20;;
11877;SDS011;5998;42.676;23.268;2023-03-13T13:06:04;14.70;;;12.30;;
11877;SDS011;5998;42.676;23.268;2023-03-13T13:08:35;13.80;;;11.83;;
11877;SDS011;5998;42.676;23.268;2023-03-13T13:17:19;15.00;;;10.50;;
11877;SDS011;5998;42.676;23.268;2023-03-13T13:19:51;14.47;;;10.40;;
11877;SDS011;5998;42.676;23.268;2023-03-13T13:28:10;13.00;;;9.40;;
11877;SDS011;5998;42.676;23.268;2023-03-13T13:30:47;13.03;;;10.23;;
11877;SDS011;5998;42.676;23.268;2023-03-13T13:33:35;13.60;;;10.73;;
11877;SDS011;5998;42.676;23.268;2023-03-13T13:38:55;13.70;;;9.87;;
11877;SDS011;5998;42.676;23.268;2023-03-13T13:41:32;10.97;;;9.37;;
11877;SDS011;5998;42.676;23.268;2023-03-13T13:44:13;10.87;;;9.53;;
11877;SDS011;5998;42.676;23.268;2023-03-13T13:46:46;9.87;;;8.63;;
11877;SDS011;5998;42.676;23.268;2023-03-13T14:01:31;13.90;;;10.30;;
11877;SDS011;5998;42.676;23.268;2023-03-13T14:04:01;12.07;;;9.90;;
11877;SDS011;5998;42.676;23.268;2023-03-13T14:06:36;13.87;;;10.03;;
11877;SDS011;5998;42.676;23.268;2023-03-13T14:09:11;12.77;;;9.90;;
11877;SDS011;5998;42.676;23.268;2023-03-13T14:11:47;14.33;;;10.67;;
11877;SDS011;5998;42.676;23.268;2023-03-13T14:14:14;10.67;;;9.27;;
11877;SDS011;5998;42.676;23.268;2023-03-13T14:16:44;13.60;;;9.50;;
11877;SDS011;5998;42.676;23.268;2023-03-13T14:19:25;14.97;;;10.50;;
11877;SDS011;5998;42.676;23.268;2023-03-13T14:22:00;11.87;;;10.17;;
11877;SDS011;5998;42.676;23.268;2023-03-13T14:24:29;11.23;;;9.63;;
11877;SDS011;5998;42.676;23.268;2023-03-13T14:26:56;12.63;;;9.97;;
11877;SDS011;5998;42.676;23.268;2023-03-13T14:29:23;13.80;;;10.00;;
11877;SDS011;5998;42.676;23.268;2023-03-13T14:31:52;15.20;;;11.20;;
11877;SDS011;5998;42.676;23.268;2023-03-13T14:34:20;13.23;;;9.73;;
11877;SDS011;5998;42.676;23.268;2023-03-13T14:36:48;12.63;;;9.80;;
11877;SDS011;5998;42.676;23.268;2023-03-13T14:39:16;10.80;;;9.50;;
11877;SDS011;5998;42.676;23.268;2023-03-13T14:41:45;17.20;;;10.07;;
11877;SDS011;5998;42.676;23.268;2023-03-13T14:44:15;13.40;;;10.20;;
11877;SDS011;5998;42.676;23.268;2023-03-13T14:46:47;11.53;;;9.93;;
11877;SDS011;5998;42.676;23.268;2023-03-13T14:49:16;11.00;;;9.90;;
11877;SDS011;5998;42.676;23.268;2023-03-13T14:51:45;14.63;;;10.37;;
11877;SDS011;5998;42.676;23.268;2023-03-13T14:54:25;11.13;;;8.93;;
11877;SDS011;5998;42.676;23.268;2023-03-13T14:57:04;12.23;;;9.03;;
11877;SDS011;5998;42.676;23.268;2023-03-13T14:59:38;10.97;;;8.97;;
11877;SDS011;5998;42.676;23.268;2023-03-13T15:02:12;10.70;;;9.23;;
11877;SDS011;5998;42.676;23.268;2023-03-13T15:04:48;11.83;;;9.77;;
11877;SDS011;5998;42.676;23.268;2023-03-13T15:07:19;13.17;;;9.53;;
11877;SDS011;5998;42.676;23.268;2023-03-13T15:09:46;12.60;;;10.17;;
11877;SDS011;5998;42.676;23.268;2023-03-13T15:12:15;13.37;;;8.90;;
11877;SDS011;5998;42.676;23.268;2023-03-13T15:14:44;10.53;;;9.43;;
11877;SDS011;5998;42.676;23.268;2023-03-13T15:17:13;10.47;;;9.43;;
11877;SDS011;5998;42.676;23.268;2023-03-13T15:19:44;14.73;;;9.80;;
11877;SDS011;5998;42.676;23.268;2023-03-13T15:22:15;14.23;;;10.03;;